Time;durP1;ratioP1;P1;durP2;ratioP2;P2;SDS_P1;SDS_P2;PMS_P1;PMS_P2;Temp;Humidity;BMP_temperature;BMP_pressure;BME280_temperature;BME280_humidity;BME280_pressure;Samples;Min_cycle;Max_cycle;Signal;HPM_P1;HPM_P2
2021/04/12 00:00:09;;;;;;;0.50;0.50;;;14.50;96.60;;;;;;4997350;28;20204;-91
2021/04/12 00:02:48;;;;;;;2.17;0.80;;;14.60;95.10;;;;;;4995989;28;20238;-91
2021/04/12 00:05:33;;;;;;;1.73;0.90;;;14.40;94.90;;;;;;4996034;28;20207;-90
2021/04/12 00:08:16;;;;;;;3.17;0.80;;;14.20;94.90;;;;;;4996430;28;20217;-91
2021/04/12 00:10:57;;;;;;;4.37;0.80;;;14.30;95.60;;;;;;4987712;28;20294;-90
2021/04/12 00:13:37;;;;;;;1.77;0.87;;;14.30;96.40;;;;;;4980489;28;20211;-91
2021/04/12 00:16:12;;;;;;;1.60;0.87;;;14.30;96.30;;;;;;4978828;28;20605;-92
2021/04/12 00:18:48;;;;;;;3.50;0.80;;;14.20;96.50;;;;;;4980376;28;20531;-91
2021/04/12 00:21:25;;;;;;;2.00;0.90;;;14.10;97.00;;;;;;4980206;28;20656;-90
2021/04/12 00:24:03;;;;;;;2.73;1.10;;;13.80;98.00;;;;;;4978494;28;20581;-89
2021/04/12 00:26:40;;;;;;;1.77;0.90;;;13.80;97.70;;;;;;4978119;28;20234;-90
2021/04/12 00:29:16;;;;;;;1.27;0.80;;;13.80;98.50;;;;;;4976364;28;20543;-90
2021/04/12 00:31:53;;;;;;;1.43;0.80;;;13.80;98.30;;;;;;4976629;28;20226;-90
2021/04/12 00:34:29;;;;;;;1.83;0.90;;;13.60;98.20;;;;;;4976675;28;20265;-90
2021/04/12 00:37:05;;;;;;;2.03;1.10;;;13.40;97.70;;;;;;4976380;28;20211;-90
2021/04/12 00:39:42;;;;;;;1.43;0.80;;;13.20;97.90;;;;;;4977098;28;20265;-90
2021/04/12 00:42:46;;;;;;;1.40;0.90;;;13.00;98.80;;;;;;4977510;28;20587;-91
2021/04/12 00:45:37;;;;;;;3.87;1.20;;;12.90;99.40;;;;;;4984958;28;20212;-91
2021/04/12 00:48:26;;;;;;;3.80;1.20;;;12.70;99.90;;;;;;4976656;28;20294;-90
2021/04/12 00:51:13;;;;;;;2.10;1.10;;;12.70;99.90;;;;;;4976874;28;20788;-90
2021/04/12 00:53:58;;;;;;;1.93;0.97;;;12.70;99.90;;;;;;4977396;28;20261;-90
2021/04/12 00:56:34;;;;;;;2.50;1.00;;;12.80;99.90;;;;;;4977969;28;20218;-91
2021/04/12 00:59:09;;;;;;;1.17;0.70;;;12.90;99.90;;;;;;4987242;28;20238;-90
2021/04/12 01:01:56;;;;;;;4.50;1.20;;;12.70;99.90;;;;;;4993123;28;20210;-90
2021/04/12 01:04:55;;;;;;;2.13;1.00;;;12.60;99.90;;;;;;4986969;28;20215;-91
2021/04/12 01:08:02;;;;;;;1.10;0.67;;;12.50;99.90;;;;;;4970196;28;20207;-91
2021/04/12 01:10:54;;;;;;;3.17;1.10;;;12.40;99.90;;;;;;4980596;28;20211;-90
2021/04/12 01:13:47;;;;;;;1.37;0.80;;;12.30;99.90;;;;;;4977895;28;20223;-90
2021/04/12 01:16:50;;;;;;;1.57;0.80;;;12.60;99.90;;;;;;4979525;28;20703;-90
2021/04/12 01:19:56;;;;;;;2.57;0.80;;;12.70;99.90;;;;;;4985084;28;20207;-90
2021/04/12 01:23:10;;;;;;;2.50;1.00;;;13.20;99.90;;;;;;4985564;28;20206;-90
2021/04/12 01:26:26;;;;;;;3.43;0.93;;;13.50;99.90;;;;;;4985440;28;20257;-90
2021/04/12 01:29:40;;;;;;;2.53;1.00;;;13.30;99.90;;;;;;4985500;28;20207;-90
2021/04/12 01:32:35;;;;;;;1.93;1.03;;;13.20;99.90;;;;;;4981637;28;20690;-90
2021/04/12 01:35:31;;;;;;;3.70;1.17;;;12.90;99.90;;;;;;4981727;28;20254;-88
2021/04/12 01:38:23;;;;;;;2.47;0.87;;;12.50;99.90;;;;;;4981561;28;20211;-89
2021/04/12 01:41:09;;;;;;;1.27;0.90;;;12.40;99.90;;;;;;4982693;28;20227;-89
2021/04/12 01:43:58;;;;;;;4.17;1.37;;;12.20;99.90;;;;;;4981799;28;20678;-91
2021/04/12 01:46:33;;;;;;;2.20;0.80;;;11.90;99.90;;;;;;4981999;28;20219;-92
2021/04/12 01:49:09;;;;;;;1.87;1.30;;;11.70;99.90;;;;;;4985604;28;20195;-92
2021/04/12 01:52:27;;;;;;;3.23;1.30;;;11.60;99.90;;;;;;4982217;28;20289;-91
2021/04/12 01:55:13;;;;;;;2.87;1.23;;;11.40;99.90;;;;;;4924998;29;20366;-91
2021/04/12 01:58:04;;;;;;;1.87;0.80;;;11.30;99.90;;;;;;4942298;29;20316;-92
2021/04/12 02:00:49;;;;;;;2.40;0.80;;;11.00;99.90;;;;;;4972304;28;20214;-92
2021/04/12 02:03:42;;;;;;;1.53;0.73;;;10.80;99.90;;;;;;4984662;28;20207;-93
2021/04/12 02:06:34;;;;;;;2.40;1.10;;;10.60;99.90;;;;;;4977097;28;20356;-92
2021/04/12 02:09:24;;;;;;;5.13;1.57;;;10.30;99.90;;;;;;4987079;28;20636;-92
2021/04/12 02:12:14;;;;;;;1.20;0.73;;;10.10;99.90;;;;;;4985841;28;20242;-91
2021/04/12 02:15:01;;;;;;;2.30;0.80;;;9.90;99.90;;;;;;4983863;28;20270;-91
2021/04/12 02:17:46;;;;;;;2.73;1.07;;;9.80;99.90;;;;;;4983553;28;20202;-91
2021/04/12 02:20:25;;;;;;;1.30;1.00;;;9.70;99.90;;;;;;5002209;28;20233;-89
2021/04/12 02:23:22;;;;;;;1.60;0.90;;;9.60;99.90;;;;;;5003685;28;20218;-91
2021/04/12 02:26:06;;;;;;;3.20;1.30;;;9.50;99.90;;;;;;4997609;28;20277;-91
2021/04/12 02:29:00;;;;;;;3.33;0.73;;;9.40;99.90;;;;;;4998222;28;20687;-90
2021/04/12 02:31:43;;;;;;;2.20;1.07;;;9.20;99.90;;;;;;5003157;28;20202;-90
2021/04/12 02:34:29;;;;;;;6.97;1.50;;;9.10;99.90;;;;;;5001454;28;20202;-91
2021/04/12 02:37:20;;;;;;;4.17;1.33;;;9.10;99.90;;;;;;4981819;28;20219;-91
2021/04/12 02:40:02;;;;;;;2.53;1.00;;;8.90;99.90;;;;;;4986063;28;20632;-91
2021/04/12 02:42:44;;;;;;;3.90;1.10;;;8.80;99.90;;;;;;4990500;28;20206;-92
2021/04/12 02:45:35;;;;;;;2.63;1.17;;;8.60;99.90;;;;;;4989371;28;20269;-91
2021/04/12 02:48:37;;;;;;;4.10;1.30;;;8.60;99.90;;;;;;4989248;28;20296;-93
2021/04/12 02:51:25;;;;;;;2.10;1.00;;;8.50;99.90;;;;;;4973796;28;20366;-92
2021/04/12 02:54:36;;;;;;;1.50;1.00;;;8.40;99.90;;;;;;4982008;28;20270;-92
2021/04/12 02:57:39;;;;;;;1.83;0.80;;;8.30;99.90;;;;;;4978465;28;20691;-93
2021/04/12 03:00:23;;;;;;;2.37;1.00;;;8.20;99.90;;;;;;4979050;28;20720;-92
2021/04/12 03:03:41;;;;;;;5.57;0.93;;;8.00;99.90;;;;;;4979168;28;20206;-92
2021/04/12 03:06:42;;;;;;;2.53;1.00;;;7.80;99.90;;;;;;4964200;28;20279;-96
2021/04/12 03:09:49;;;;;;;2.33;1.10;;;7.70;99.90;;;;;;4978419;28;20318;-92
2021/04/12 03:12:50;;;;;;;1.73;1.00;;;7.70;99.90;;;;;;4978979;28;20210;-91
2021/04/12 03:16:05;;;;;;;2.57;0.90;;;7.60;99.90;;;;;;4978350;28;20775;-90
2021/04/12 03:19:05;;;;;;;2.77;1.07;;;7.50;99.90;;;;;;4904401;29;20213;-92
2021/04/12 03:22:22;;;;;;;1.63;0.83;;;7.40;99.90;;;;;;4992535;28;20283;-90
2021/04/12 03:25:22;;;;;;;1.67;0.80;;;7.40;99.90;;;;;;4992496;28;20219;-92
2021/04/12 03:28:19;;;;;;;1.87;0.63;;;7.40;99.90;;;;;;4989681;28;20207;-92
2021/04/12 03:31:18;;;;;;;2.23;0.70;;;7.30;99.90;;;;;;4982458;28;20268;-91
2021/04/12 03:34:10;;;;;;;0.90;0.80;;;7.30;99.90;;;;;;4978589;28;20231;-91
2021/04/12 03:37:21;;;;;;;0.70;0.60;;;7.30;99.90;;;;;;4978379;28;20652;-91
2021/04/12 03:39:55;;;;;;;2.00;0.80;;;7.30;99.90;;;;;;4948184;28;20207;-92
2021/04/12 03:42:59;;;;;;;0.87;0.50;;;7.20;99.90;;;;;;4983682;28;20260;-92
2021/04/12 03:45:56;;;;;;;0.90;0.53;;;7.10;99.90;;;;;;4953836;28;20220;-92
2021/04/12 03:48:40;;;;;;;1.97;1.00;;;7.00;99.90;;;;;;4986663;28;20207;-92
2021/04/12 03:51:45;;;;;;;1.10;0.70;;;7.00;99.90;;;;;;4988052;28;20213;-92
2021/04/12 03:54:33;;;;;;;2.00;1.00;;;7.00;99.90;;;;;;4967743;28;20210;-93
2021/04/12 03:57:52;;;;;;;2.17;0.97;;;6.90;99.90;;;;;;4980247;28;20203;-93
2021/04/12 04:00:41;;;;;;;2.30;1.10;;;6.80;99.90;;;;;;4980399;28;20208;-92
2021/04/12 04:03:41;;;;;;;1.73;0.80;;;6.70;99.90;;;;;;4980314;28;20206;-92
2021/04/12 04:06:48;;;;;;;1.90;0.80;;;6.60;99.90;;;;;;4980020;28;20191;-92
2021/04/12 04:09:46;;;;;;;4.20;0.83;;;6.60;99.90;;;;;;4978082;28;20215;-91
2021/04/12 04:12:44;;;;;;;2.03;0.70;;;6.50;99.90;;;;;;4978998;28;20250;-92
2021/04/12 04:15:33;;;;;;;1.33;0.87;;;6.40;99.90;;;;;;4980187;28;20235;-91
2021/04/12 04:18:24;;;;;;;0.90;0.70;;;6.40;99.90;;;;;;4985350;28;20203;-91
2021/04/12 04:21:37;;;;;;;3.43;0.90;;;6.30;99.90;;;;;;4983956;28;20256;-91
2021/04/12 04:24:50;;;;;;;3.07;1.03;;;6.30;99.90;;;;;;4965902;28;20239;-91
2021/04/12 04:27:58;;;;;;;1.60;0.90;;;6.30;99.90;;;;;;4980916;28;20246;-90
2021/04/12 04:31:01;;;;;;;1.63;0.90;;;6.30;99.90;;;;;;4981042;28;20213;-91
2021/04/12 04:33:58;;;;;;;2.50;0.93;;;6.20;99.90;;;;;;4978256;28;20238;-91
2021/04/12 04:36:41;;;;;;;1.53;0.90;;;6.20;99.90;;;;;;4978584;28;20306;-91
2021/04/12 04:39:48;;;;;;;1.70;0.97;;;6.20;99.90;;;;;;4979017;28;20207;-91
2021/04/12 04:42:55;;;;;;;1.07;0.97;;;6.20;99.90;;;;;;4979132;28;20242;-92
2021/04/12 04:45:46;;;;;;;1.40;0.90;;;6.10;99.90;;;;;;4980020;28;20203;-93
2021/04/12 04:48:49;;;;;;;2.93;1.10;;;6.00;99.90;;;;;;4976488;28;20234;-92
2021/04/12 04:51:38;;;;;;;3.73;1.40;;;6.00;99.90;;;;;;4978913;28;20210;-92
2021/04/12 04:54:43;;;;;;;1.10;0.90;;;5.90;99.90;;;;;;4977014;28;20222;-92
2021/04/12 04:57:46;;;;;;;3.40;1.10;;;5.90;99.90;;;;;;4978334;28;20211;-91
2021/04/12 05:00:36;;;;;;;1.60;0.90;;;5.80;99.90;;;;;;4946236;28;20207;-92
2021/04/12 05:03:35;;;;;;;1.57;1.00;;;5.70;99.90;;;;;;4978732;28;20218;-92
2021/04/12 05:06:42;;;;;;;1.80;0.87;;;5.70;99.90;;;;;;4983713;28;20598;-91
2021/04/12 05:09:31;;;;;;;2.33;1.27;;;5.60;99.90;;;;;;4978001;28;20234;-92
2021/04/12 05:12:33;;;;;;;1.83;1.10;;;5.50;99.90;;;;;;4979984;28;20237;-90
2021/04/12 05:15:24;;;;;;;2.23;1.00;;;5.50;99.90;;;;;;4981602;28;20265;-91
2021/04/12 05:18:13;;;;;;;2.13;0.93;;;5.40;99.90;;;;;;4989362;28;20207;-90
2021/04/12 05:21:12;;;;;;;1.20;0.87;;;5.40;99.90;;;;;;4988764;28;20191;-90
2021/04/12 05:24:12;;;;;;;3.60;0.93;;;5.40;99.90;;;;;;4979587;28;20285;-90
2021/04/12 05:27:18;;;;;;;2.90;1.10;;;5.30;99.90;;;;;;4932666;28;20274;-91
2021/04/12 05:30:16;;;;;;;2.43;0.80;;;5.10;99.90;;;;;;4930184;28;20242;-90
2021/04/12 05:32:52;;;;;;;2.07;1.03;;;5.00;99.90;;;;;;4978811;28;20211;-90
2021/04/12 05:35:54;;;;;;;1.90;1.00;;;4.90;99.90;;;;;;4977794;28;20270;-90
2021/04/12 05:38:58;;;;;;;4.00;1.27;;;4.80;99.90;;;;;;4976758;28;20234;-90
2021/04/12 05:41:57;;;;;;;1.83;1.30;;;4.80;99.90;;;;;;4968191;28;20254;-90
2021/04/12 05:44:53;;;;;;;3.57;1.90;;;4.80;99.90;;;;;;4982276;28;20211;-91
2021/04/12 05:48:02;;;;;;;1.97;1.43;;;4.70;99.90;;;;;;4994335;28;20203;-91
2021/04/12 05:50:59;;;;;;;2.00;1.47;;;4.70;99.90;;;;;;4993910;28;20207;-91
2021/04/12 05:53:52;;;;;;;2.77;1.60;;;4.60;99.90;;;;;;4984016;28;20222;-91
2021/04/12 05:56:40;;;;;;;3.43;1.43;;;4.60;99.90;;;;;;4975928;28;20231;-91
2021/04/12 05:59:33;;;;;;;3.63;1.93;;;4.60;99.90;;;;;;4976954;28;20215;-91
2021/04/12 06:02:28;;;;;;;3.07;1.73;;;4.60;99.90;;;;;;4977351;28;20343;-91
2021/04/12 06:05:05;;;;;;;2.73;1.30;;;4.60;99.90;;;;;;4980291;28;20225;-92
2021/04/12 06:07:59;;;;;;;2.57;1.27;;;4.70;99.90;;;;;;4978277;28;20242;-92
2021/04/12 06:11:17;;;;;;;4.00;1.67;;;4.60;99.90;;;;;;4979371;28;20210;-92
2021/04/12 06:14:28;;;;;;;1.90;1.10;;;4.70;99.90;;;;;;4924557;29;20244;-90
2021/04/12 06:17:49;;;;;;;3.73;1.37;;;4.70;99.90;;;;;;4980388;28;20617;-91
2021/04/12 06:20:53;;;;;;;4.90;1.40;;;4.70;99.90;;;;;;4946576;28;20318;-91
2021/04/12 06:23:52;;;;;;;1.90;1.10;;;4.70;99.90;;;;;;4963714;29;20219;-91
2021/04/12 06:26:50;;;;;;;2.10;1.60;;;4.70;99.90;;;;;;4976812;28;20249;-91
2021/04/12 06:29:55;;;;;;;1.70;1.47;;;4.70;99.90;;;;;;4980585;28;20650;-91
2021/04/12 06:32:56;;;;;;;5.73;1.77;;;4.70;99.90;;;;;;4979200;28;20667;-91
2021/04/12 06:35:57;;;;;;;8.13;1.40;;;4.70;99.90;;;;;;4984547;28;20235;-92
2021/04/12 06:38:52;;;;;;;2.17;1.20;;;4.70;99.90;;;;;;4978121;28;20710;-91
2021/04/12 06:42:02;;;;;;;2.13;1.20;;;4.80;99.90;;;;;;4979124;28;20211;-91
2021/04/12 06:44:52;;;;;;;3.10;1.10;;;4.80;99.90;;;;;;4981784;28;20297;-92
2021/04/12 06:48:01;;;;;;;4.03;1.37;;;4.80;99.90;;;;;;4977116;28;20207;-91
2021/04/12 06:50:57;;;;;;;1.73;0.90;;;4.90;99.90;;;;;;4984946;28;20731;-92
2021/04/12 06:54:06;;;;;;;3.17;1.17;;;4.90;99.90;;;;;;4989638;28;20238;-92
2021/04/12 06:57:18;;;;;;;1.93;1.00;;;4.80;99.90;;;;;;4982467;28;20231;-91
2021/04/12 07:00:18;;;;;;;5.00;1.23;;;4.70;99.90;;;;;;4950456;28;20373;-92
2021/04/12 07:03:31;;;;;;;3.33;1.20;;;4.70;99.90;;;;;;4980030;28;20233;-92
2021/04/12 07:06:38;;;;;;;2.90;1.20;;;4.70;99.90;;;;;;4907592;29;20263;-92
2021/04/12 07:09:38;;;;;;;3.63;1.53;;;4.60;99.90;;;;;;4982548;28;20246;-91
2021/04/12 07:12:50;;;;;;;2.97;1.10;;;4.60;99.90;;;;;;4984512;28;20222;-91
2021/04/12 07:16:06;;;;;;;2.47;1.13;;;4.50;99.90;;;;;;4951159;29;20235;-91
2021/04/12 07:19:30;;;;;;;2.60;1.30;;;4.40;99.90;;;;;;4988583;28;20203;-91
2021/04/12 07:22:31;;;;;;;1.67;1.10;;;4.30;99.90;;;;;;4980076;28;20207;-90
2021/04/12 07:25:41;;;;;;;3.57;1.13;;;4.30;99.90;;;;;;4979803;28;20257;-91
2021/04/12 07:29:12;;;;;;;2.30;1.00;;;4.20;99.90;;;;;;4977568;28;20215;-91
2021/04/12 07:32:24;;;;;;;3.63;1.00;;;4.20;99.90;;;;;;4977638;28;20266;-91
2021/04/12 07:35:27;;;;;;;1.40;1.03;;;4.10;99.90;;;;;;4968068;28;20218;-90
2021/04/12 07:38:39;;;;;;;2.83;1.20;;;4.00;99.90;;;;;;4970520;28;20211;-90
2021/04/12 07:41:58;;;;;;;2.67;1.20;;;3.90;99.90;;;;;;4977349;28;20266;-91
2021/04/12 07:45:01;;;;;;;2.93;1.30;;;3.80;99.90;;;;;;4968031;28;20653;-91
2021/04/12 07:48:07;;;;;;;3.40;1.17;;;3.80;99.90;;;;;;4976403;28;20330;-92
2021/04/12 07:51:14;;;;;;;1.13;1.00;;;3.80;99.90;;;;;;4977837;28;20215;-91
2021/04/12 07:54:25;;;;;;;2.40;1.13;;;3.70;99.90;;;;;;4980307;28;20664;-92
2021/04/12 07:57:38;;;;;;;3.53;1.47;;;3.60;99.90;;;;;;4985594;28;20597;-92
2021/04/12 08:00:46;;;;;;;3.00;1.20;;;3.60;99.90;;;;;;4984080;28;20245;-92
2021/04/12 08:03:52;;;;;;;3.80;1.10;;;3.60;99.90;;;;;;4988390;28;20226;-92
2021/04/12 08:07:02;;;;;;;2.27;1.27;;;3.60;99.90;;;;;;4991927;28;20238;-92
2021/04/12 08:10:27;;;;;;;2.70;1.37;;;3.50;99.90;;;;;;4969606;29;20239;-91
2021/04/12 08:13:50;;;;;;;1.50;1.10;;;3.50;99.90;;;;;;4960545;28;20219;-91
2021/04/12 08:17:00;;;;;;;2.87;1.17;;;3.50;99.90;;;;;;4957942;28;20239;-91
2021/04/12 08:19:49;;;;;;;3.17;1.37;;;3.40;99.90;;;;;;4974989;28;20211;-91
2021/04/12 08:22:47;;;;;;;2.00;1.00;;;3.40;99.90;;;;;;4959978;28;20211;-90
2021/04/12 08:25:48;;;;;;;1.20;0.90;;;3.30;99.90;;;;;;4965325;28;20295;-92
2021/04/12 08:29:04;;;;;;;1.50;0.90;;;3.20;99.90;;;;;;4964660;28;20214;-91
2021/04/12 08:32:34;;;;;;;4.23;1.37;;;3.20;99.90;;;;;;4960916;29;20238;-91
2021/04/12 08:35:34;;;;;;;2.23;1.17;;;3.20;99.90;;;;;;4957957;28;20214;-91
2021/04/12 08:38:40;;;;;;;2.63;1.30;;;3.10;99.90;;;;;;4957614;28;20215;-90
2021/04/12 08:41:40;;;;;;;1.40;1.20;;;3.00;99.90;;;;;;4961086;28;20227;-91
2021/04/12 08:44:41;;;;;;;2.67;1.30;;;3.00;99.90;;;;;;4961628;29;20669;-92
2021/04/12 08:47:43;;;;;;;3.10;1.23;;;3.00;99.90;;;;;;4957171;28;20238;-91
2021/04/12 08:50:45;;;;;;;3.43;1.17;;;3.10;99.90;;;;;;4964034;28;20310;-91
2021/04/12 08:53:38;;;;;;;1.80;1.20;;;3.00;99.90;;;;;;4957427;29;20551;-92
2021/04/12 08:56:31;;;;;;;2.53;1.33;;;2.90;99.90;;;;;;4970966;28;20334;-92
2021/04/12 08:59:42;;;;;;;2.90;1.40;;;2.90;99.90;;;;;;4976650;28;20263;-92
2021/04/12 09:02:44;;;;;;;2.53;1.23;;;2.90;99.90;;;;;;4976395;28;20211;-92
2021/04/12 09:05:40;;;;;;;3.00;1.40;;;2.80;99.90;;;;;;4976044;28;20624;-92
2021/04/12 09:08:57;;;;;;;2.90;1.30;;;2.80;99.90;;;;;;4974274;28;20226;-92
2021/04/12 09:12:08;;;;;;;2.07;1.30;;;2.80;99.90;;;;;;4952537;28;20210;-92
2021/04/12 09:15:24;;;;;;;3.50;1.10;;;2.80;99.90;;;;;;4964445;28;20262;-91
2021/04/12 09:18:35;;;;;;;1.43;1.00;;;2.70;99.90;;;;;;4974690;28;20273;-91
2021/04/12 09:21:43;;;;;;;2.07;1.23;;;2.80;99.90;;;;;;4976154;28;20220;-92
2021/04/12 09:24:38;;;;;;;2.10;1.30;;;2.80;99.90;;;;;;4974872;28;20211;-91
2021/04/12 09:27:37;;;;;;;2.37;1.40;;;2.80;99.90;;;;;;4975311;28;20215;-92
2021/04/12 09:30:55;;;;;;;3.73;1.30;;;2.80;99.90;;;;;;4962778;28;20227;-91
2021/04/12 09:34:05;;;;;;;1.70;1.17;;;2.80;99.90;;;;;;4956273;28;20221;-92
2021/04/12 09:37:04;;;;;;;2.53;1.30;;;2.70;99.90;;;;;;4956584;28;20235;-91
2021/04/12 09:39:58;;;;;;;3.67;1.23;;;2.70;99.90;;;;;;4960130;28;20328;-91
2021/04/12 09:43:07;;;;;;;1.83;1.10;;;2.70;99.90;;;;;;4960171;28;20243;-92
2021/04/12 09:46:20;;;;;;;2.13;1.10;;;2.70;99.90;;;;;;4961559;28;20219;-92
2021/04/12 09:49:24;;;;;;;2.63;1.17;;;2.60;99.90;;;;;;4961255;28;20274;-91
2021/04/12 09:52:41;;;;;;;1.37;1.17;;;2.60;99.90;;;;;;4964476;28;20374;-92
2021/04/12 09:55:45;;;;;;;1.87;1.20;;;2.50;99.90;;;;;;4969657;28;20227;-91
2021/04/12 09:59:08;;;;;;;1.67;1.10;;;2.50;99.90;;;;;;4988682;28;20234;-92
2021/04/12 10:02:10;;;;;;;2.27;1.10;;;2.50;99.90;;;;;;4998327;28;20258;-92
2021/04/12 10:05:09;;;;;;;5.00;1.50;;;2.50;99.90;;;;;;4984820;28;20240;-92
2021/04/12 10:08:00;;;;;;;1.83;1.10;;;2.50;99.90;;;;;;4987811;28;20215;-92
2021/04/12 10:10:36;;;;;;;2.13;1.20;;;2.50;99.90;;;;;;4980262;28;20318;-92
2021/04/12 10:13:26;;;;;;;1.90;1.00;;;2.50;99.90;;;;;;4980086;28;20219;-92
2021/04/12 10:16:08;;;;;;;4.23;1.57;;;2.50;99.90;;;;;;4980230;28;20245;-92
2021/04/12 10:18:49;;;;;;;1.97;1.10;;;2.40;99.90;;;;;;4985448;28;20221;-91
2021/04/12 10:21:36;;;;;;;4.10;1.30;;;2.40;99.90;;;;;;4996257;28;20214;-92
2021/04/12 10:24:16;;;;;;;1.53;1.00;;;2.40;99.90;;;;;;4996084;28;20207;-91
2021/04/12 10:26:51;;;;;;;3.93;1.37;;;2.40;99.90;;;;;;4978606;28;20260;-92
2021/04/12 10:29:27;;;;;;;2.23;1.00;;;2.30;99.90;;;;;;4979462;28;20206;-91
2021/04/12 10:32:07;;;;;;;3.50;1.30;;;2.30;99.90;;;;;;4979190;28;20203;-91
2021/04/12 10:34:44;;;;;;;3.27;1.40;;;2.30;99.90;;;;;;4978957;28;20206;-91
2021/04/12 10:37:38;;;;;;;2.10;1.23;;;2.30;99.90;;;;;;4978103;28;20269;-90
2021/04/12 10:40:20;;;;;;;3.53;1.33;;;2.30;99.90;;;;;;4978046;28;20210;-91
2021/04/12 10:42:59;;;;;;;3.30;1.10;;;2.20;99.90;;;;;;4977610;28;20283;-90
2021/04/12 10:45:33;;;;;;;1.80;1.00;;;2.20;99.90;;;;;;4978667;28;20261;-91
2021/04/12 10:48:10;;;;;;;3.10;1.27;;;2.20;99.90;;;;;;4977540;28;20211;-91
2021/04/12 10:51:04;;;;;;;2.60;0.93;;;2.20;99.90;;;;;;4979196;28;20241;-92
2021/04/12 10:54:08;;;;;;;2.17;1.23;;;2.10;99.90;;;;;;4978315;28;20214;-92
2021/04/12 10:56:42;;;;;;;2.30;1.10;;;2.10;99.90;;;;;;4977679;28;20235;-91
2021/04/12 10:59:43;;;;;;;5.17;1.57;;;2.00;99.90;;;;;;4978314;28;20217;-91
2021/04/12 11:02:22;;;;;;;7.27;1.40;;;2.00;99.90;;;;;;4979678;28;20682;-91
2021/04/12 11:05:03;;;;;;;2.03;1.10;;;2.00;99.90;;;;;;4980795;28;20214;-92
2021/04/12 11:08:02;;;;;;;1.73;1.20;;;2.00;99.90;;;;;;4977456;28;20202;-92
2021/04/12 11:10:42;;;;;;;2.53;1.47;;;2.00;99.90;;;;;;4980582;28;20222;-92
2021/04/12 11:13:26;;;;;;;3.93;1.13;;;2.00;99.90;;;;;;4983117;28;20269;-92
2021/04/12 11:16:26;;;;;;;2.70;1.40;;;2.00;99.90;;;;;;4979275;28;20252;-93
2021/04/12 11:19:33;;;;;;;2.83;1.37;;;1.90;99.90;;;;;;4949318;28;20226;-92
2021/04/12 11:22:22;;;;;;;5.47;1.23;;;1.90;99.90;;;;;;4962475;28;20271;-91
2021/04/12 11:25:02;;;;;;;3.20;1.40;;;1.90;99.90;;;;;;4958519;29;20639;-91
2021/04/12 11:28:02;;;;;;;3.50;1.37;;;1.90;99.90;;;;;;4974320;28;20302;-92
2021/04/12 11:30:44;;;;;;;3.93;1.57;;;1.90;99.90;;;;;;4965265;28;20225;-92
2021/04/12 11:33:38;;;;;;;5.00;1.50;;;1.80;99.90;;;;;;4979868;28;20221;-91
2021/04/12 11:36:18;;;;;;;2.50;1.33;;;1.80;99.90;;;;;;4981451;28;20233;-92
2021/04/12 11:38:58;;;;;;;3.20;1.33;;;1.80;99.90;;;;;;4987898;28;20217;-92
2021/04/12 11:41:33;;;;;;;3.93;1.73;;;1.80;99.90;;;;;;4984694;28;20206;-92
2021/04/12 11:44:12;;;;;;;2.40;1.30;;;1.80;99.90;;;;;;4983010;28;20217;-92
2021/04/12 11:47:18;;;;;;;2.97;1.60;;;1.80;99.90;;;;;;4979157;28;20567;-91
2021/04/12 11:50:18;;;;;;;2.73;1.50;;;1.80;99.90;;;;;;4977584;28;20261;-90
2021/04/12 11:52:58;;;;;;;5.43;1.40;;;1.80;99.90;;;;;;4979151;28;20219;-92
2021/04/12 11:55:34;;;;;;;2.03;1.10;;;1.70;99.90;;;;;;4978215;28;20258;-91
2021/04/12 11:58:17;;;;;;;2.60;1.43;;;1.70;99.90;;;;;;4979139;28;20207;-92
2021/04/12 12:01:00;;;;;;;2.83;1.70;;;1.70;99.90;;;;;;4985229;28;20218;-92
2021/04/12 12:04:04;;;;;;;3.93;1.67;;;1.60;99.90;;;;;;4983208;28;20228;-92
2021/04/12 12:06:49;;;;;;;2.07;1.50;;;1.60;99.90;;;;;;4978854;28;20214;-92
2021/04/12 12:09:36;;;;;;;4.73;1.53;;;1.50;99.90;;;;;;4976997;28;20293;-92
2021/04/12 12:12:25;;;;;;;4.50;1.97;;;1.50;99.90;;;;;;4994110;28;20300;-92
2021/04/12 12:15:02;;;;;;;3.13;1.90;;;1.50;99.90;;;;;;4995290;28;20210;-91
2021/04/12 12:17:40;;;;;;;4.07;1.70;;;1.40;99.90;;;;;;4994904;28;20307;-91
2021/04/12 12:20:20;;;;;;;2.80;1.87;;;1.30;99.90;;;;;;4981597;28;20223;-92
2021/04/12 12:23:20;;;;;;;2.90;1.67;;;1.30;99.90;;;;;;4977022;28;20703;-89
2021/04/12 12:25:54;;;;;;;4.13;2.03;;;1.20;99.90;;;;;;4978372;28;20739;-92
2021/04/12 12:28:41;;;;;;;2.47;1.53;;;1.10;99.90;;;;;;4975813;28;20560;-91
2021/04/12 12:34:29;;;;;;;3.30;1.80;;;1.00;99.90;;;;;;4992691;28;20229;-92
2021/04/12 12:37:10;;;;;;;4.13;1.80;;;1.00;99.90;;;;;;4987338;28;20778;-91
2021/04/12 12:39:46;;;;;;;2.97;2.07;;;1.00;99.90;;;;;;4984669;28;20217;-91
2021/04/12 12:42:25;;;;;;;2.10;1.70;;;1.00;99.90;;;;;;4978354;28;20206;-93
2021/04/12 12:45:03;;;;;;;2.03;1.80;;;0.90;99.90;;;;;;4977055;28;20217;-92
2021/04/12 12:47:37;;;;;;;5.23;1.73;;;0.90;99.90;;;;;;4976663;28;20659;-91
2021/04/12 12:50:14;;;;;;;1.93;1.70;;;0.90;99.90;;;;;;4977025;28;20213;-91
2021/04/12 12:52:51;;;;;;;3.83;2.20;;;0.90;99.90;;;;;;4977287;28;20203;-91
2021/04/12 12:55:28;;;;;;;3.27;2.03;;;0.90;99.90;;;;;;4976610;28;20219;-91
2021/04/12 12:58:08;;;;;;;2.53;1.80;;;0.90;99.90;;;;;;4975806;28;20640;-91
2021/04/12 13:00:41;;;;;;;3.03;1.73;;;0.80;99.90;;;;;;4976430;28;20272;-91
2021/04/12 13:03:29;;;;;;;3.50;2.27;;;0.70;99.90;;;;;;4975062;28;20682;-91
2021/04/12 13:06:13;;;;;;;2.23;1.60;;;0.70;99.90;;;;;;4976119;28;20210;-91
2021/04/12 13:08:52;;;;;;;3.47;1.80;;;0.70;99.90;;;;;;4976473;28;20217;-90
2021/04/12 13:11:42;;;;;;;4.17;1.80;;;0.70;99.90;;;;;;4980065;28;20213;-91
2021/04/12 13:14:32;;;;;;;5.23;1.90;;;0.70;99.90;;;;;;4993417;28;20223;-90
2021/04/12 13:17:19;;;;;;;2.57;1.50;;;0.70;99.90;;;;;;4996752;28;20220;-90
2021/04/12 13:19:54;;;;;;;2.40;1.90;;;0.60;99.90;;;;;;4992610;28;20724;-91
2021/04/12 13:22:30;;;;;;;4.87;1.97;;;0.60;99.90;;;;;;4984918;28;20240;-92
2021/04/12 13:25:18;;;;;;;4.90;1.90;;;0.60;99.90;;;;;;4983611;28;20210;-91
2021/04/12 13:27:56;;;;;;;4.27;1.80;;;0.60;99.90;;;;;;4979096;28;20652;-91
2021/04/12 13:30:30;;;;;;;6.23;1.80;;;0.60;99.90;;;;;;4979601;28;20621;-91
2021/04/12 13:33:03;;;;;;;4.83;2.13;;;0.60;99.90;;;;;;4979937;28;20238;-90
2021/04/12 13:35:43;;;;;;;2.97;1.77;;;0.60;99.90;;;;;;4982248;28;20244;-92
2021/04/12 13:38:19;;;;;;;1.93;1.60;;;0.60;99.90;;;;;;4980221;28;20378;-91
2021/04/12 13:41:00;;;;;;;3.10;1.60;;;0.60;99.90;;;;;;4983088;28;20257;-91
2021/04/12 13:43:35;;;;;;;3.27;1.50;;;0.70;99.90;;;;;;4981156;28;20234;-90
2021/04/12 13:46:16;;;;;;;2.97;1.60;;;0.70;99.90;;;;;;4979314;28;20213;-93
2021/04/12 13:48:51;;;;;;;6.40;1.90;;;0.70;99.90;;;;;;4981913;28;20199;-92
2021/04/12 13:51:34;;;;;;;4.33;1.60;;;0.80;99.90;;;;;;4980375;28;20297;-92
2021/04/12 13:54:15;;;;;;;4.20;1.80;;;0.80;99.90;;;;;;4981100;28;20234;-91
2021/04/12 13:56:51;;;;;;;1.83;1.43;;;0.80;99.90;;;;;;4981996;28;20234;-93
2021/04/12 13:59:27;;;;;;;3.33;1.70;;;0.90;99.90;;;;;;4986307;28;20214;-91
2021/04/12 14:02:24;;;;;;;6.40;1.80;;;0.90;99.90;;;;;;4986743;28;20702;-91
2021/04/12 14:04:59;;;;;;;3.13;1.60;;;1.00;99.90;;;;;;4981326;28;20230;-93
2021/04/12 14:07:41;;;;;;;2.87;1.43;;;1.00;99.90;;;;;;4979120;28;20210;-93
2021/04/12 14:10:23;;;;;;;3.10;1.50;;;1.00;99.90;;;;;;4979526;28;20246;-92
2021/04/12 14:13:00;;;;;;;3.93;1.60;;;1.10;99.90;;;;;;4979631;28;20570;-91
2021/04/12 14:15:43;;;;;;;2.50;1.30;;;1.10;99.90;;;;;;4979125;28;20246;-90
2021/04/12 14:18:27;;;;;;;2.93;1.30;;;1.10;99.90;;;;;;4978338;28;20278;-91
2021/04/12 14:21:15;;;;;;;2.30;1.30;;;1.20;99.90;;;;;;4980292;28;20301;-91
2021/04/12 14:23:51;;;;;;;3.93;1.40;;;1.30;99.90;;;;;;4978388;28;20221;-91
2021/04/12 14:26:29;;;;;;;2.73;1.50;;;1.30;99.90;;;;;;4980991;28;20261;-91
2021/04/12 14:29:05;;;;;;;4.03;1.30;;;1.40;99.90;;;;;;4978396;28;20262;-90
2021/04/12 14:31:40;;;;;;;3.07;1.50;;;1.40;99.90;;;;;;4978752;28;20206;-91
2021/04/12 14:34:14;;;;;;;2.23;1.33;;;1.50;99.90;;;;;;4978948;28;20211;-91
2021/04/12 14:36:47;;;;;;;1.43;1.30;;;1.50;99.90;;;;;;4978553;28;20304;-91
2021/04/12 14:39:28;;;;;;;2.53;1.30;;;1.70;99.90;;;;;;4979962;28;20271;-91
2021/04/12 14:42:03;;;;;;;2.07;1.43;;;1.80;99.90;;;;;;4978863;28;20210;-91
2021/04/12 14:44:40;;;;;;;1.47;1.20;;;1.90;99.90;;;;;;4980764;28;20565;-90
2021/04/12 14:47:21;;;;;;;1.57;1.00;;;2.00;99.90;;;;;;4977897;28;20230;-92
2021/04/12 14:49:57;;;;;;;1.70;1.10;;;2.10;99.90;;;;;;4981884;28;20218;-92
2021/04/12 14:52:38;;;;;;;3.90;1.13;;;2.20;99.90;;;;;;4980650;28;20666;-92
2021/04/12 14:55:14;;;;;;;2.10;1.50;;;2.40;99.90;;;;;;4993189;28;20205;-91
2021/04/12 14:57:46;;;;;;;1.77;1.20;;;2.40;99.90;;;;;;4996134;28;20233;-92
2021/04/12 15:00:22;;;;;;;2.03;1.23;;;2.50;99.90;;;;;;4997006;28;20230;-92
2021/04/12 15:03:03;;;;;;;1.50;1.10;;;2.50;99.90;;;;;;4987968;28;20221;-91
2021/04/12 15:05:42;;;;;;;3.83;1.37;;;2.60;99.90;;;;;;4981133;28;20195;-91
2021/04/12 15:08:18;;;;;;;4.37;1.43;;;2.70;99.90;;;;;;4981420;28;20221;-91
2021/04/12 15:10:55;;;;;;;2.17;1.30;;;2.80;99.90;;;;;;4983364;28;20202;-91